Date,TemperatureHighF,TemperatureAvgF,TemperatureLowF,DewpointHighF,DewpointAvgF,DewpointLowF,HumidityHigh,HumidityAvg,HumidityLow,PressureMaxIn,PressureMinIn,WindSpeedMaxMPH,WindSpeedAvgMPH,GustSpeedMaxMPH,PrecipitationSumIn
2013-1-1,15.2,9.3,3.6,7.0,3.5,0.0,84,78,67,30.27,30.18,5,2,8,0.00
2013-1-2,26.3,20.2,10.6,21.0,13.1,4.0,84,74,52,30.20,30.07,5,1,9,0.00
2013-1-3,26.8,22.7,12.9,22.0,18.7,9.0,89,84,79,30.25,30.07,9,4,13,0.00
2013-1-4,29.4,20.5,11.3,22.0,15.6,7.0,87,81,71,30.21,30.10,11,4,17,0.00
2013-1-5,35.5,27.6,14.7,34.0,24.8,13.0,95,89,76,30.25,29.87,6,1,14,0.09
2013-1-6,35.3,26.2,17.5,33.0,22.0,15.0,91,84,79,30.30,29.87,13,5,17,0.02
2013-1-7,39.8,28.2,13.7,28.0,21.7,12.0,91,77,58,30.29,30.05,13,2,17,0.01
2013-1-8,40.4,33.5,23.9,33.0,29.0,23.0,95,84,71,30.11,29.94,5,1,11,0.05
2013-1-9,40.3,35.0,25.2,33.0,28.3,23.0,91,77,64,30.46,29.92,14,4,21,0.00
2013-1-10,42.3,31.3,20.0,36.0,27.8,18.0,96,87,68,30.49,29.87,6,1,10,0.40
2013-1-11,48.5,42.3,36.8,47.0,41.4,36.0,98,96,92,29.86,29.59,9,1,14,0.10
2013-1-12,52.4,37.1,24.9,47.0,31.5,20.0,93,80,71,29.99,29.60,13,4,23,0.01
2013-1-13,24.8,11.5,14.3,22.0,-35.4,-99.9,92,45,74,30.22,29.91,9,-439,12,0.00
2013-1-14,22.9,15.5,8.6,11.0,8.7,5.0,84,75,60,30.48,30.24,5,2,8,0.00
2013-1-15,29.3,19.7,9.0,17.0,12.8,7.0,92,76,55,30.45,30.11,6,1,12,0.00
2013-1-16,34.7,26.7,17.5,31.0,20.5,11.0,88,78,63,30.11,29.79,13,3,18,0.00
2013-1-17,30.1,21.2,13.3,22.0,9.8,5.0,88,62,52,30.41,30.07,11,3,15,0.00
2013-1-18,43.1,31.6,13.2,34.0,24.7,10.0,89,76,66,30.44,29.82,9,3,21,0.01
2013-1-19,44.7,37.6,19.1,36.0,29.3,7.0,86,73,35,29.94,29.64,23,6,43,0.00
2013-1-20,18.5,12.9,8.9,8.0,1.8,0.0,69,62,53,30.31,29.96,17,6,26,0.00
2013-1-21,12.3,5.4,-0.6,5.0,-3.8,-9.0,84,66,57,30.32,30.15,19,8,22,0.00
2013-1-22,8.7,2.0,-4.7,-2.0,-6.5,-11.0,77,68,58,30.41,30.32,10,4,14,0.00
2013-1-23,18.7,13.0,6.5,15.0,5.8,-2.0,88,73,62,30.44,30.11,19,4,26,0.00
2013-1-24,19.2,9.5,1.1,11.0,1.0,-5.0,75,68,58,30.69,30.39,8,2,12,0.00
2013-1-25,27.2,21.1,17.0,19.0,13.6,5.0,85,73,55,30.37,29.95,10,4,18,0.00
2013-1-26,25.7,18.7,9.5,15.0,9.4,5.0,83,68,50,30.41,30.21,6,2,13,0.00
2013-1-27,34.9,29.1,24.0,34.0,23.9,14.0,96,81,65,30.36,29.86,5,1,12,0.01
2013-1-28,42.8,37.8,33.4,38.0,35.3,31.0,97,91,77,29.93,29.77,8,2,11,0.34
2013-1-29,59.2,45.1,36.1,57.0,44.1,35.0,99,96,93,29.80,29.45,5,2,16,1.64
2013-1-30,36.5,29.1,17.1,36.0,27.5,13.0,97,93,83,29.61,29.27,10,4,16,0.12
2013-1-31,17.0,10.1,3.2,13.0,-7.1,-99.9,88,69,70,30.18,29.61,14,-118,20,0.00
2013-2-1,7.8,1.8,-4.3,5.0,-5.6,-99.9,88,77,70,30.37,30.18,11,-19,13,0.00
2013-2-2,11.5,8.6,3.0,7.0,3.8,-1.0,90,81,68,30.17,30.06,9,1,9,0.00
2013-2-3,20.5,14.3,6.0,14.0,9.4,2.0,90,81,69,30.07,29.97,15,3,17,0.00
2013-2-4,18.2,14.7,7.9,14.0,9.9,3.0,91,82,62,30.03,29.95,8,2,11,0.00
2013-2-5,29.3,18.1,4.8,25.0,3.1,-99.9,93,75,78,30.12,29.81,7,-114,13,0.00
2013-2-6,35.6,21.8,2.6,32.0,12.1,-99.9,91,78,67,30.25,30.07,5,-41,10,0.02
2013-2-7,35.4,32.3,22.4,34.0,30.6,21.0,96,93,86,30.09,29.89,8,1,15,0.07
2013-2-8,24.5,19.9,4.5,21.0,16.7,2.0,95,87,78,30.41,30.05,7,2,12,0.00
2013-2-9,30.1,24.6,5.1,26.0,21.8,3.0,94,89,83,30.42,30.09,6,1,13,0.00
2013-2-10,43.1,34.3,20.0,42.0,32.9,19.0,97,94,82,30.08,29.40,10,2,19,0.86
2013-2-11,40.3,32.0,27.0,35.0,27.0,22.0,87,81,76,29.99,29.42,20,8,30,0.00
2013-2-12,29.8,25.0,22.3,23.0,20.0,17.0,91,81,74,30.09,29.88,13,4,18,0.00
2013-2-13,38.7,30.2,18.0,31.0,26.3,16.0,96,85,73,29.88,29.68,6,1,10,0.00
2013-2-14,36.6,34.5,29.5,34.0,29.1,22.0,92,81,65,29.98,29.57,15,5,23,0.01
2013-2-15,29.4,22.0,14.5,26.0,12.2,6.0,88,67,50,30.21,29.98,12,5,14,0.00
2013-2-16,17.6,13.0,6.3,7.0,3.6,1.0,80,67,51,30.22,30.16,14,3,17,0.00
2013-2-17,27.8,17.1,2.9,19.0,8.7,0.0,91,71,52,30.24,29.96,6,1,9,0.00
2013-2-18,48.3,36.2,26.1,41.0,30.5,19.0,97,80,69,29.95,29.44,10,3,18,0.17
2013-2-19,25.1,14.7,9.7,24.0,10.1,2.0,94,82,69,30.20,29.54,14,9,24,0.00
2013-2-20,22.2,14.0,6.9,13.0,7.1,1.0,85,74,65,30.41,30.20,10,4,17,0.00
2013-2-21,27.1,19.9,10.9,25.0,16.1,7.0,92,85,79,30.45,30.06,11,3,18,0.00
2013-2-22,32.8,28.3,24.9,30.0,26.1,24.0,95,91,83,30.05,29.78,10,2,13,0.00
2013-2-23,28.9,26.1,23.6,25.0,21.2,19.0,89,82,72,29.94,29.85,10,4,13,0.00
2013-2-24,38.4,25.6,15.5,25.0,19.5,13.0,91,78,58,30.15,29.95,5,1,7,0.01
2013-2-25,43.5,28.9,14.1,29.0,22.3,12.0,93,78,55,30.18,30.03,5,0,6,0.07
2013-2-26,34.5,32.8,30.2,31.0,28.7,26.0,96,85,73,30.02,29.61,17,5,19,0.00
2013-2-27,32.9,31.1,28.6,32.0,30.0,28.0,96,95,91,29.77,29.59,11,4,17,0.03
2013-2-28,34.7,31.6,25.5,31.0,26.7,19.0,93,82,74,30.11,29.77,12,4,14,0.06
2013-3-1,25.9,23.7,17.7,21.0,18.8,14.0,86,81,75,30.26,30.11,12,3,17,0.00
2013-3-2,26.5,18.4,11.2,16.0,12.2,8.0,89,77,65,30.26,30.19,9,2,14,0.00
2013-3-3,28.5,16.3,4.6,14.0,8.7,2.0,90,74,50,30.19,30.11,4,1,11,0.00
2013-3-4,35.4,23.7,8.3,25.0,17.4,5.0,87,77,64,30.16,30.04,6,2,13,0.02
2013-3-5,31.9,29.2,25.4,30.0,26.5,24.0,95,89,78,30.08,29.86,9,3,15,0.00
2013-3-6,33.0,29.7,26.0,28.0,25.4,23.0,91,84,79,30.32,30.08,10,3,14,0.00
2013-3-7,37.7,27.4,17.3,24.0,19.6,15.0,89,73,57,30.43,30.31,8,1,8,0.10
2013-3-8,40.3,27.0,10.9,30.0,21.6,9.0,93,81,62,30.48,30.29,5,1,10,0.01
2013-3-9,43.2,36.8,27.5,36.0,31.7,25.0,93,82,68,30.29,29.80,10,1,14,0.17
2013-3-10,42.2,39.9,37.1,41.0,38.9,36.0,97,96,92,29.80,29.60,10,1,10,0.93
2013-3-11,36.9,34.0,32.0,36.0,32.9,29.0,98,96,87,29.75,29.54,9,3,14,0.05
2013-3-12,33.5,29.3,26.2,29.0,25.4,21.0,95,85,67,30.00,29.75,11,5,17,0.00
2013-3-13,32.7,26.2,20.6,22.0,13.9,10.0,88,62,39,30.32,30.01,14,5,20,0.00
2013-3-14,38.6,28.0,19.1,29.0,21.1,13.0,93,76,60,30.32,30.07,4,1,11,0.00
2013-3-15,36.0,32.2,28.3,34.0,30.1,27.0,95,92,83,30.07,29.80,5,1,11,0.13
2013-3-16,31.5,28.1,22.9,28.0,22.8,20.0,93,81,70,30.14,29.79,11,4,14,0.00
2013-3-17,33.8,26.7,19.8,23.0,17.8,12.0,84,69,58,30.26,30.01,6,2,13,0.00
2013-3-18,35.1,28.9,19.8,32.0,25.2,13.0,94,86,73,30.00,29.58,14,3,23,0.05
2013-3-19,30.1,20.9,13.4,16.0,11.5,8.0,82,68,50,30.07,29.73,18,8,25,0.00
2013-3-20,21.7,16.5,11.0,11.0,6.0,1.0,68,63,55,30.10,30.04,14,6,22,0.00
2013-3-21,29.8,19.8,11.8,15.0,9.8,5.0,74,66,52,30.09,30.02,11,4,13,0.00
2013-3-22,34.6,24.2,13.9,19.0,14.8,10.0,86,69,47,30.09,30.04,6,1,11,0.01
2013-3-23,39.8,30.2,18.9,26.0,20.7,16.0,91,70,47,30.16,30.06,5,1,11,0.00
2013-3-24,36.4,32.1,30.0,30.0,26.6,23.0,90,80,72,30.07,29.76,13,5,22,0.00
2013-3-25,35.8,31.2,26.1,28.0,24.6,22.0,84,77,68,30.09,29.80,16,4,21,0.00
2013-3-26,41.8,35.6,31.6,29.0,26.4,24.0,78,70,59,30.25,30.09,9,3,13,0.00
2013-3-27,42.1,36.6,29.5,27.0,24.5,22.0,77,63,47,30.31,30.25,7,2,10,0.00
2013-3-28,46.2,35.3,23.9,26.0,23.1,21.0,89,64,39,30.35,30.29,7,1,11,0.00
2013-3-29,49.9,39.0,26.6,31.0,25.1,22.0,91,61,36,30.32,30.23,5,1,9,0.00
2013-3-30,55.8,44.3,31.6,42.0,33.6,24.0,88,67,52,30.23,29.80,8,2,16,0.00
2013-3-31,50.9,41.8,34.4,42.0,35.3,22.0,93,78,60,29.89,29.69,20,6,26,0.00
2013-4-1,36.9,31.8,27.8,21.0,16.3,12.0,66,54,37,30.20,29.90,15,6,19,0.00
2013-4-2,40.0,32.8,25.9,18.0,15.9,10.0,72,52,32,30.32,30.19,15,5,20,0.00
2013-4-3,45.9,35.7,24.4,24.0,17.9,12.0,75,51,28,30.46,30.28,5,1,9,0.00
2013-4-4,57.9,43.9,29.6,38.0,27.6,18.0,66,54,39,30.28,29.94,11,3,16,0.00
2013-4-5,50.3,40.9,31.0,30.0,26.8,22.0,84,59,38,30.23,30.02,8,2,10,0.00
2013-4-6,66.4,49.3,35.4,51.0,37.0,22.0,89,64,41,30.12,29.53,13,3,19,0.14
2013-4-7,56.7,45.9,38.5,50.0,37.1,33.0,89,72,51,29.93,29.55,10,4,18,0.00
2013-4-8,53.4,44.7,38.2,47.0,41.0,33.0,95,87,79,29.98,29.58,10,3,16,0.78
2013-4-9,43.5,40.4,38.3,42.0,39.3,37.0,97,96,93,30.00,29.85,12,3,15,1.09
2013-4-10,38.8,37.1,33.8,38.0,36.2,33.0,98,96,93,30.05,29.85,10,4,15,1.17
2013-4-11,39.3,37.9,36.6,38.0,36.7,35.0,97,95,93,29.91,29.56,11,4,24,0.35
2013-4-12,42.8,38.4,36.1,39.0,35.4,30.0,97,89,76,29.80,29.52,11,4,17,0.06
2013-4-13,39.6,36.8,33.9,31.0,28.7,26.0,85,73,60,29.98,29.78,12,5,20,0.00
2013-4-14,55.6,30.7,32.3,49.0,5.9,-99.9,93,67,77,30.00,29.57,8,-214,17,0.10
2013-4-15,61.1,51.4,41.5,54.0,45.4,39.0,97,81,48,29.94,29.56,11,3,25,0.73
2013-4-16,54.4,44.6,36.3,39.0,35.2,32.0,93,71,48,30.28,29.95,10,4,13,0.00
2013-4-17,44.9,42.2,40.1,43.0,37.7,33.0,95,85,72,30.30,29.83,11,2,16,0.85
2013-4-18,61.6,48.8,40.0,59.0,47.2,35.0,97,94,80,29.84,29.33,17,3,29,0.96
2013-4-19,40.2,37.2,33.1,34.0,29.8,24.0,85,75,60,29.90,29.36,15,9,30,0.00
2013-4-20,46.4,36.1,28.6,27.0,20.5,16.0,78,56,31,30.40,29.91,13,4,18,0.00
2013-4-21,55.1,43.5,32.2,36.0,29.6,25.0,82,60,38,30.51,30.27,10,2,20,0.00
2013-4-22,68.0,54.6,42.3,44.0,38.1,34.0,73,56,37,30.28,29.98,6,2,15,0.00
2013-4-23,55.3,45.2,36.7,49.0,39.9,32.0,93,82,57,29.98,29.87,11,3,17,0.32
2013-4-24,53.7,43.7,35.1,32.0,27.6,22.0,79,56,31,30.03,29.94,11,4,17,0.00
2013-4-25,52.6,45.0,39.7,37.0,32.8,30.0,84,64,43,30.28,29.97,11,4,19,0.00
2013-4-26,69.9,55.2,38.3,48.0,39.0,27.0,70,55,43,30.28,30.13,9,3,22,0.00
2013-4-27,67.9,57.6,46.3,50.0,46.4,44.0,91,68,46,30.21,29.98,6,1,11,0.00
2013-4-28,72.1,59.9,51.3,52.0,47.1,44.0,85,65,41,29.97,29.76,4,1,6,0.00
2013-4-29,71.8,62.3,52.4,58.0,53.8,50.0,91,75,53,29.84,29.69,8,2,14,0.05
2013-4-30,87.8,73.5,61.1,62.0,56.4,49.0,88,60,27,29.83,29.65,14,3,24,0.00
2013-5-1,85.6,72.8,54.1,59.0,55.0,44.0,84,56,30,30.14,29.84,15,3,18,0.00
2013-5-2,55.7,48.2,40.2,47.0,41.5,37.0,92,78,62,30.23,30.14,19,5,20,0.55
2013-5-3,50.0,43.3,37.7,48.0,42.3,36.0,97,96,91,30.19,29.98,9,3,16,0.48
2013-5-4,72.7,60.2,48.7,53.0,49.0,46.0,93,69,45,30.02,29.95,9,2,12,0.00
2013-5-5,74.8,61.3,48.3,50.0,46.3,43.0,90,61,33,30.03,29.95,7,1,11,0.00
2013-5-6,77.1,62.5,46.8,50.0,42.5,31.0,89,54,21,30.04,29.95,6,1,11,0.00
2013-5-7,81.1,66.8,52.0,54.0,44.2,38.0,83,48,23,30.03,29.93,6,1,9,0.00
2013-5-8,81.7,67.4,50.6,53.0,46.9,35.0,90,53,19,30.00,29.90,5,1,8,0.00
2013-5-9,67.3,59.4,47.3,60.0,53.3,46.0,95,81,55,29.91,29.83,6,1,14,0.91
2013-5-10,50.5,45.8,42.8,46.0,43.6,41.0,97,92,84,29.97,29.82,12,4,16,0.80
2013-5-11,53.2,47.9,40.9,50.0,37.7,24.0,97,71,33,30.02,29.78,18,6,30,0.00
2013-5-12,54.4,46.0,38.9,30.0,27.4,24.0,69,50,31,30.11,30.02,15,5,21,0.00
2013-5-13,64.1,48.7,34.8,39.0,34.1,27.0,93,63,25,30.16,29.92,7,1,10,0.00
2013-5-14,89.8,70.8,50.5,61.0,50.7,37.0,63,51,29,29.91,29.51,7,2,15,0.01
2013-5-15,79.1,71.4,58.9,61.0,50.2,41.0,80,50,28,29.79,29.52,8,3,17,0.00
2013-5-16,85.3,68.7,55.0,55.0,47.6,40.0,90,50,28,29.93,29.79,8,2,10,0.00
2013-5-17,65.6,58.7,51.4,53.0,47.1,37.0,93,67,45,30.05,29.92,10,2,12,0.37
2013-5-18,82.3,67.4,53.9,65.0,57.7,47.0,88,72,52,30.02,29.89,5,1,8,0.00
2013-5-19,87.9,73.7,59.3,67.0,62.4,57.0,93,70,44,29.91,29.61,11,2,16,0.05
2013-5-20,86.1,75.7,64.0,66.0,61.3,58.0,90,63,41,29.69,29.58,13,2,18,0.00
2013-5-21,79.8,71.0,62.9,65.0,60.9,57.0,88,72,48,29.64,29.56,13,2,21,0.02
2013-5-22,72.7,63.6,56.0,66.0,60.6,55.0,97,90,69,29.71,29.57,3,0,8,0.67
2013-5-23,60.1,52.6,42.1,55.0,46.3,38.0,98,81,50,30.29,29.73,11,4,22,0.16
2013-5-24,66.7,51.6,38.4,45.0,38.3,35.0,89,64,37,30.43,30.27,9,1,10,0.00
2013-5-25,62.3,54.2,46.3,43.0,38.6,35.0,74,57,43,30.37,30.27,7,1,9,0.00
2013-5-26,68.8,55.3,42.8,52.0,44.0,36.0,87,68,42,30.29,30.14,8,1,9,0.06
2013-5-27,55.4,53.6,51.6,53.0,50.3,44.0,96,89,69,30.13,29.87,8,2,12,0.09
2013-5-28,72.3,62.2,51.8,68.0,60.6,51.0,98,94,84,29.86,29.66,5,1,8,1.14
2013-5-29,84.2,73.6,64.5,70.0,66.3,63.0,98,79,59,29.87,29.72,7,1,13,0.00
2013-5-30,86.3,75.9,63.8,71.0,67.1,62.0,93,75,56,29.82,29.66,11,2,18,0.31
2013-5-31,77.6,69.2,63.3,68.0,64.0,62.0,95,84,62,29.75,29.63,8,2,15,0.03
2013-6-1,79.7,71.9,66.7,68.0,64.2,58.0,96,78,56,29.64,29.55,9,2,14,0.00
2013-6-2,66.4,56.3,48.7,59.0,47.8,43.0,91,74,57,29.99,29.63,14,3,19,0.00
2013-6-3,73.6,59.2,44.1,52.0,45.2,39.0,96,64,33,30.08,29.98,6,1,11,0.00
2013-6-4,73.1,62.6,53.5,50.0,46.4,43.0,73,57,41,30.13,30.02,7,1,10,0.00
2013-6-5,67.7,59.1,52.9,55.0,51.8,46.0,88,77,61,30.11,29.92,5,1,7,0.09
2013-6-6,60.5,57.2,53.7,55.0,52.8,50.0,93,85,76,29.93,29.87,5,1,7,0.03
2013-6-7,73.6,61.9,54.0,54.0,49.3,44.0,89,66,35,29.96,29.87,9,1,13,0.00
2013-6-8,74.5,62.0,50.2,53.0,50.0,48.0,95,68,41,29.97,29.89,4,1,8,0.00
2013-6-9,81.7,69.6,56.8,64.0,56.8,50.0,86,65,45,29.98,29.75,7,2,13,0.00
2013-6-10,80.6,71.9,62.0,65.0,62.7,59.0,92,74,56,29.80,29.71,7,1,11,0.00
2013-6-11,86.0,74.4,61.8,68.0,64.4,60.0,95,73,51,29.86,29.72,6,1,10,0.00
2013-6-12,80.7,71.5,63.7,70.0,66.3,63.0,96,84,67,29.85,29.57,11,2,19,1.33
2013-6-13,78.6,68.6,59.4,63.0,58.6,53.0,96,72,52,30.02,29.68,8,2,14,0.00
2013-6-14,79.8,67.0,54.6,61.0,55.2,49.0,92,68,48,30.11,29.95,5,1,7,0.00
2013-6-15,82.2,69.7,57.2,71.0,63.2,49.0,96,80,63,30.03,29.77,7,1,11,0.39
2013-6-16,84.7,75.8,65.6,70.0,61.3,52.0,95,65,33,29.85,29.78,9,2,13,0.22
2013-6-17,86.8,74.1,61.1,63.0,58.7,56.0,83,61,37,29.91,29.78,12,2,23,0.00
2013-6-18,72.8,63.5,55.8,58.0,54.3,50.0,85,73,47,30.02,29.91,10,3,14,0.00
2013-6-20,89.7,81.8,77.1,66.0,54.3,-99.9,60,41,37,30.02,0.00,6,-50,8,0.00
2013-6-21,76.4,69.7,69.9,69.0,60.3,-99.9,94,81,76,30.01,29.93,3,-47,6,0.43
2013-6-22,82.0,72.7,66.5,75.0,68.9,65.0,96,88,73,30.09,29.87,10,2,19,0.82
2013-6-23,87.7,75.8,65.4,75.0,68.7,64.0,95,79,64,29.98,29.81,8,1,13,0.00
2013-6-24,83.1,73.7,69.1,72.0,68.4,66.0,94,84,64,29.96,29.80,6,1,11,0.00
2013-6-25,82.4,72.7,65.5,74.0,69.5,64.0,97,90,73,29.89,29.75,5,1,18,1.85
2013-6-26,74.9,69.5,66.9,72.0,66.2,-99.9,97,93,86,29.77,29.68,8,-16,11,2.26
2013-6-27,88.2,77.9,69.9,73.0,68.9,63.0,95,76,52,29.73,29.63,12,3,14,0.00
2013-6-28,78.0,72.1,67.5,66.0,62.8,59.0,90,73,54,29.67,29.56,13,4,21,0.00
2013-6-29,74.6,67.7,64.9,64.0,62.2,58.0,95,83,56,29.77,29.57,10,2,17,0.35
2013-6-30,79.2,69.1,60.9,62.0,56.5,51.0,82,65,44,29.99,29.78,12,3,17,0.00
2013-7-1,80.1,69.9,58.3,56.0,52.5,49.0,76,56,35,30.06,29.99,12,2,17,0.00
2013-7-2,77.3,67.1,57.9,56.0,52.2,45.0,88,61,34,30.07,30.01,11,2,12,0.00
2013-7-3,71.8,66.5,60.5,65.0,59.9,50.0,92,79,68,30.04,29.98,6,1,7,0.00
2013-7-4,85.0,73.5,60.7,66.0,61.5,55.0,95,69,41,30.05,29.95,5,1,8,0.00
2013-7-5,86.4,76.4,63.5,67.0,63.9,60.0,89,67,49,30.02,29.93,6,1,9,0.00
2013-7-6,87.1,76.3,63.9,67.0,64.6,62.0,92,69,47,29.98,29.88,5,1,9,0.00
2013-7-7,90.3,79.4,68.6,73.0,69.5,66.0,94,73,50,29.93,29.85,7,1,9,0.00
2013-7-8,88.7,79.2,72.1,78.0,72.8,70.0,94,81,65,29.92,29.84,7,2,14,0.18
2013-7-9,85.2,77.0,70.8,77.0,73.1,69.0,96,88,71,29.93,29.77,6,1,15,0.42
2013-7-10,78.7,75.2,66.5,75.0,64.4,56.0,94,71,47,29.96,29.78,12,3,16,0.00
2013-7-11,83.0,70.9,59.3,62.0,58.6,56.0,94,68,40,30.07,29.96,4,1,9,0.00
2013-7-12,86.8,72.3,57.5,62.0,55.5,43.0,93,61,25,30.12,30.02,5,1,7,0.00
2013-7-13,86.3,73.7,58.8,64.0,60.2,56.0,91,65,44,30.11,30.03,5,1,8,0.00
2013-7-14,89.6,77.8,64.2,71.0,67.1,61.0,89,71,52,30.16,30.09,6,1,7,0.00
2013-7-15,93.2,81.0,69.2,77.0,72.1,67.0,93,76,52,30.21,30.14,5,0,7,0.00
2013-7-16,92.8,83.8,73.7,77.0,75.0,72.0,94,76,57,30.22,30.15,10,1,10,0.00
2013-7-17,94.3,84.1,75.7,78.0,75.2,72.0,95,76,52,30.23,30.09,5,1,14,0.41
2013-7-18,93.4,84.4,74.5,78.0,75.0,74.0,97,75,54,30.10,29.84,6,2,13,0.00
2013-7-19,91.1,83.8,76.8,76.0,72.9,66.0,82,70,56,29.84,29.66,8,3,17,0.00
2013-7-20,86.0,75.6,65.0,68.0,63.6,60.0,87,68,45,29.91,29.76,6,2,13,0.00
2013-7-21,84.6,68.6,62.3,69.0,62.5,58.0,96,82,57,29.94,29.81,12,2,20,2.56
2013-7-22,87.0,74.0,62.3,72.0,67.0,62.0,97,80,57,29.84,29.61,10,1,13,0.02
2013-7-23,75.4,69.7,59.9,65.0,59.4,55.0,89,71,50,29.95,29.65,10,2,17,0.00
2013-7-24,74.7,65.0,55.4,57.0,54.1,51.0,93,71,46,30.04,29.95,7,1,10,0.00
2013-7-25,80.7,68.7,55.1,65.0,59.6,53.0,94,74,54,30.05,29.90,7,1,14,0.00
2013-7-26,74.0,68.6,64.1,70.0,63.7,57.0,95,84,65,29.92,29.80,6,1,12,0.70
2013-7-27,64.0,58.2,53.3,57.0,50.2,47.0,86,75,60,29.91,29.84,12,4,18,0.00
2013-7-28,68.2,59.3,52.9,55.0,51.8,50.0,92,77,61,29.98,29.82,12,3,15,0.00
2013-7-29,76.4,64.1,56.7,60.0,56.2,53.0,90,76,56,30.13,29.98,4,1,8,0.00
2013-7-30,76.6,65.6,56.2,64.0,60.6,55.0,96,85,60,30.15,30.05,4,0,7,0.43
2013-7-31,78.5,67.9,61.7,69.0,64.1,60.0,97,88,68,30.05,29.90,6,1,16,0.04
2013-8-1,78.2,68.6,61.1,62.0,58.6,53.0,96,73,43,29.95,29.86,8,2,17,0.01
2013-8-2,81.0,70.9,62.5,68.0,61.6,57.0,95,74,49,29.91,29.79,7,2,11,0.33
2013-8-3,77.5,69.0,56.4,58.0,54.9,53.0,92,63,44,30.08,29.91,9,1,14,0.00
2013-8-4,76.2,65.6,55.6,62.0,56.4,53.0,92,74,48,30.18,30.07,5,1,7,0.00
2013-8-5,73.4,65.1,57.0,65.0,60.4,55.0,94,85,70,30.08,29.82,3,0,10,0.01
2013-8-6,84.4,74.2,65.2,72.0,68.2,64.0,95,82,63,29.83,29.73,5,1,11,0.00
2013-8-7,81.5,74.9,65.8,72.0,68.0,63.0,95,80,56,29.91,29.69,6,2,13,0.00
2013-8-8,79.9,69.5,61.9,66.0,60.5,54.0,96,75,51,30.00,29.90,4,1,8,0.00
2013-8-9,79.9,69.9,58.5,66.0,59.9,53.0,83,71,60,30.01,29.93,6,1,13,0.00
2013-8-10,76.6,67.6,56.5,61.0,57.3,54.0,93,72,50,30.10,30.02,7,1,10,0.00
2013-8-11,75.7,66.3,56.4,67.0,62.0,55.0,95,86,71,30.10,29.98,4,0,6,0.18
2013-8-12,80.4,71.3,64.9,69.0,65.4,60.0,97,83,58,29.99,29.84,9,1,11,0.15
2013-8-13,71.6,62.9,54.4,59.0,51.9,48.0,86,69,49,30.13,29.93,10,2,15,0.00
2013-8-14,75.0,62.0,51.0,55.0,52.7,50.0,96,74,48,30.20,30.09,6,1,10,0.00
2013-8-15,76.7,66.3,58.5,60.0,56.0,53.0,90,71,47,30.12,30.05,4,1,7,0.00
2013-8-16,82.0,68.9,55.5,60.0,57.4,54.0,96,70,41,30.15,30.08,5,1,9,0.00
2013-8-17,82.5,68.7,55.8,64.0,58.1,54.0,96,72,43,30.21,30.12,5,0,6,0.00
2013-8-18,83.0,69.3,54.5,64.0,58.4,53.0,97,72,43,30.19,30.04,5,1,8,0.00
2013-8-19,83.6,71.0,58.2,67.0,62.1,56.0,93,76,50,30.07,29.96,5,1,10,0.00
2013-8-20,86.9,75.5,64.2,69.0,65.6,62.0,95,73,50,30.03,29.95,7,1,13,0.00
2013-8-21,89.2,79.6,69.8,73.0,69.2,65.0,86,71,55,29.98,29.85,10,2,15,0.00
2013-8-22,78.6,72.2,67.3,71.0,68.8,64.0,97,89,77,30.08,29.92,14,1,25,0.76
2013-8-23,83.3,70.2,57.9,65.0,60.3,57.0,96,74,47,30.14,30.06,4,0,10,0.00
2013-8-24,85.2,71.7,57.0,69.0,63.4,56.0,97,77,56,30.21,30.11,5,1,8,0.00
2013-8-25,89.6,78.8,68.9,71.0,66.3,60.0,79,66,47,30.15,30.04,9,2,15,0.00
2013-8-26,90.7,80.6,72.6,78.0,71.3,66.0,81,73,64,30.07,29.89,7,2,11,0.00
2013-8-27,93.8,83.9,75.5,77.0,74.1,71.0,85,73,56,29.90,29.73,9,2,15,0.00
2013-8-28,86.7,78.2,69.4,76.0,71.8,67.0,92,81,63,29.99,29.76,9,1,10,0.00
2013-8-29,89.2,76.6,64.8,72.0,68.7,64.0,97,79,54,30.03,29.91,4,0,8,0.00
2013-8-30,94.2,77.9,69.3,79.0,72.2,66.0,93,83,58,29.92,29.69,9,2,12,0.13
2013-8-31,79.7,70.9,64.9,70.0,66.6,63.0,95,86,71,29.82,29.74,3,0,5,0.01
2013-9-1,84.7,72.4,62.4,74.0,66.4,60.0,97,82,61,29.78,29.65,8,1,12,0.01
2013-9-2,72.1,65.9,57.7,61.0,58.4,53.0,91,78,59,29.96,29.77,5,2,12,0.00
2013-9-3,75.4,62.7,51.6,59.0,54.5,50.0,93,76,49,30.07,29.97,6,0,7,0.00
2013-9-4,82.8,68.7,56.3,67.0,60.8,55.0,95,78,54,30.08,30.00,4,1,8,0.00
2013-9-5,76.3,67.0,55.5,64.0,58.1,51.0,94,75,52,30.22,30.08,4,1,10,0.00
2013-9-6,86.3,69.9,51.2,68.0,60.4,49.0,94,74,54,30.19,29.93,8,1,11,0.00
2013-9-7,90.4,77.4,70.0,74.0,68.2,64.0,91,74,53,29.93,29.80,6,1,13,0.00
2013-9-8,72.4,68.6,64.9,69.0,64.7,61.0,90,87,82,30.00,29.90,8,2,14,0.00
2013-9-9,93.8,79.7,66.4,78.0,71.8,64.0,95,78,59,29.92,29.72,6,1,11,0.00
2013-9-10,94.6,84.6,75.1,73.0,66.7,64.0,71,56,38,29.87,29.75,9,2,15,0.00
2013-9-11,83.6,75.6,69.4,70.0,67.1,65.0,90,75,60,30.01,29.87,6,1,10,0.01
2013-9-12,75.2,67.8,60.0,66.0,57.3,50.0,96,71,47,30.09,29.92,12,3,19,0.00
2013-9-13,65.8,56.2,47.2,50.0,44.1,40.0,88,66,42,30.20,30.09,11,2,14,0.00
2013-9-14,73.4,58.7,42.7,52.0,46.5,41.0,96,68,41,30.16,29.97,6,1,10,0.00
2013-9-15,61.1,57.0,54.2,57.0,53.2,46.0,96,88,58,30.19,29.95,10,1,12,0.59
2013-9-16,66.2,54.9,44.5,53.0,46.8,42.0,92,76,52,30.37,30.20,11,2,12,0.00
2013-9-17,71.1,57.3,42.8,57.0,50.7,42.0,96,80,57,30.32,30.07,4,1,9,0.03
2013-9-18,78.2,67.8,58.3,69.0,62.4,55.0,95,83,70,30.06,29.84,6,1,11,0.10
2013-9-19,87.8,73.6,66.9,77.0,69.5,65.0,97,87,59,29.86,29.65,15,1,24,1.07
2013-9-20,72.9,66.8,57.9,67.0,61.7,54.0,98,84,63,29.79,29.67,14,3,17,0.01
2013-9-21,59.3,55.4,49.1,55.0,49.1,45.0,95,80,63,29.93,29.78,8,2,20,0.00
2013-9-22,65.9,53.9,44.5,49.0,46.3,43.0,95,78,50,30.06,29.93,4,1,7,0.00
2013-9-23,69.1,54.9,43.3,54.0,48.5,42.0,97,81,56,30.10,30.00,6,1,8,0.00
2013-9-24,72.2,58.0,46.6,55.0,50.8,46.0,97,79,53,30.03,29.92,7,1,8,0.01
2013-9-25,73.2,58.1,47.1,58.0,51.4,46.0,96,80,52,29.97,29.91,6,1,7,0.00
2013-9-26,78.1,60.3,46.5,62.0,51.4,46.0,98,76,44,30.05,29.95,7,0,7,0.01
2013-9-27,82.3,65.1,50.8,60.0,54.3,50.0,97,72,40,30.12,30.00,5,1,10,0.00
2013-9-28,81.4,66.0,53.5,67.0,57.6,50.0,95,76,51,30.01,29.78,13,2,18,0.23
2013-9-29,72.3,58.5,48.6,56.0,49.1,43.0,97,75,37,30.03,29.92,4,1,6,0.01
2013-9-30,75.4,59.6,43.6,54.0,47.3,42.0,96,68,37,29.97,29.80,6,0,10,0.00
2013-10-1,81.9,68.1,56.1,65.0,59.9,50.0,93,76,55,29.91,29.79,12,1,13,0.00
2013-10-2,79.1,63.9,49.3,58.0,49.1,39.0,97,65,28,30.07,29.92,4,0,6,0.00
2013-10-3,75.0,66.5,58.8,70.0,63.2,50.0,96,89,70,29.94,29.78,4,0,14,0.20
2013-10-4,68.9,65.5,62.3,67.0,64.4,61.0,97,96,92,29.96,29.82,5,1,10,0.46
2013-10-5,73.2,66.9,62.3,71.0,65.8,58.0,98,96,86,29.89,29.69,4,0,10,0.24
2013-10-6,61.8,53.4,46.5,57.0,45.2,42.0,93,75,55,29.72,29.63,9,2,11,0.01
2013-10-7,67.7,54.0,46.0,49.0,46.0,44.0,96,77,43,30.06,29.69,10,3,17,0.03
2013-10-8,76.6,58.1,41.7,55.0,47.3,41.0,98,72,38,30.14,30.05,7,1,12,0.00
2013-10-9,74.6,60.5,48.4,53.0,48.1,43.0,94,67,33,30.19,30.08,3,0,8,0.00
2013-10-10,76.6,58.8,43.9,57.0,49.7,43.0,97,76,42,30.14,30.01,3,0,7,0.00
2013-10-11,75.6,62.7,51.7,61.0,54.5,50.0,97,77,54,30.02,29.88,4,1,13,0.00
2013-10-12,69.7,62.3,47.1,62.0,53.1,41.0,90,73,44,30.12,29.86,7,2,12,0.04
2013-10-13,61.5,49.7,40.2,45.0,40.3,37.0,94,73,41,30.39,30.12,9,1,14,0.00
2013-10-14,62.4,48.3,35.2,48.0,41.9,34.0,97,81,54,30.41,30.11,5,1,10,0.00
2013-10-15,62.4,54.1,46.7,61.0,50.3,44.0,96,87,75,30.10,29.70,6,1,14,0.30
2013-10-16,53.6,51.0,48.8,51.0,47.9,45.0,94,89,81,29.91,29.75,7,2,15,0.02
2013-10-17,53.3,46.7,39.4,47.0,44.3,38.0,96,91,75,29.89,29.79,6,1,8,0.11
2013-10-18,49.1,44.0,38.0,44.0,39.9,37.0,96,86,73,29.93,29.78,9,2,16,0.01
2013-10-19,51.6,43.7,35.6,41.0,38.1,34.0,93,81,54,29.89,29.71,7,1,11,0.01
2013-10-20,52.4,44.7,34.1,48.0,40.9,33.0,96,87,64,29.84,29.69,2,0,8,0.05
2013-10-21,47.8,41.2,32.9,45.0,32.5,25.0,90,72,55,29.93,29.73,9,4,18,0.00
2013-10-22,45.7,37.4,28.7,32.0,29.1,25.0,85,73,56,29.96,29.89,6,1,8,0.00
2013-10-23,44.0,37.2,30.4,32.0,28.2,24.0,86,71,45,30.00,29.92,9,3,18,0.00
2013-10-24,43.2,37.2,30.6,30.0,27.4,24.0,81,69,53,30.28,30.00,13,3,17,0.00
2013-10-25,51.8,41.3,29.6,32.0,28.6,26.0,87,63,44,30.36,29.92,9,2,17,0.00
2013-10-26,50.9,46.3,39.3,38.0,31.4,28.0,71,57,45,30.05,29.77,17,5,24,0.00
2013-10-27,54.8,41.9,30.9,34.0,31.1,28.0,89,68,41,30.04,29.89,9,1,15,0.00
2013-10-28,44.7,40.8,33.8,37.0,33.7,30.0,88,76,67,30.39,30.02,9,3,15,0.00
2013-10-29,54.1,44.7,37.8,43.0,38.6,31.0,93,79,66,30.38,30.12,5,1,7,0.00
2013-10-30,60.1,51.9,45.2,56.0,49.7,43.0,96,92,84,30.11,29.71,4,0,16,0.00
2013-10-31,61.9,56.8,44.7,61.0,55.4,41.0,97,95,88,29.71,29.20,10,2,23,0.84
2013-11-1,47.3,44.7,42.8,45.0,41.7,39.0,94,89,85,29.72,29.30,10,3,20,0.02
2013-11-2,45.8,41.1,35.5,41.0,38.2,34.0,94,89,75,30.14,29.72,9,2,12,0.00
2013-11-3,52.3,40.0,29.1,44.0,34.6,28.0,97,83,53,30.29,30.13,8,1,10,0.01
2013-11-4,56.4,49.7,42.2,46.0,41.3,37.0,84,73,61,30.21,30.02,9,2,14,0.00
2013-11-5,55.4,51.7,47.7,51.0,48.3,45.0,95,88,78,30.22,29.84,8,1,17,0.12
2013-11-6,56.0,45.0,33.2,55.0,40.7,26.0,96,85,61,30.14,29.67,10,4,21,0.42
2013-11-7,38.5,17.2,30.0,32.0,-33.9,-99.9,85,42,78,30.23,30.14,6,-483,11,0.00
2013-11-8,-200.0,0.0,200.0,-99.9,-99.9,-99.9,0,0,100,30.29,29.78,0,-999,0,0.00
2013-11-9,53.5,39.1,41.2,42.0,11.6,-99.9,80,54,54,30.05,29.72,23,-181,31,0.00
2013-11-10,48.3,42.7,37.2,34.0,31.1,29.0,72,64,51,30.31,30.06,10,4,16,0.00
2013-11-11,44.7,34.6,24.6,36.0,27.3,16.0,94,75,67,30.54,30.04,10,3,15,0.08
2013-11-12,31.3,25.2,20.1,18.0,16.2,13.0,80,69,49,30.72,30.55,10,4,15,0.00
2013-11-13,40.9,31.2,20.4,22.0,18.2,15.0,80,60,42,30.57,30.09,13,4,17,0.00
2013-11-14,47.3,39.7,32.4,31.0,26.6,20.0,67,60,52,30.08,29.88,8,2,14,0.00
2013-11-15,54.5,44.2,35.8,36.0,32.7,28.0,86,65,49,29.93,29.86,5,2,9,0.00
2013-11-16,59.6,49.8,39.4,56.0,47.6,36.0,96,91,84,29.87,29.47,9,3,20,0.04
2013-11-17,64.5,52.3,40.9,62.0,49.4,36.0,98,90,78,29.64,29.05,18,5,26,0.59
2013-11-18,40.6,35.3,28.2,36.0,27.6,23.0,85,74,62,30.25,29.65,17,7,25,0.00
2013-11-19,41.5,31.1,21.7,29.0,25.0,19.0,93,79,57,30.37,30.25,4,1,8,0.00
2013-11-20,42.5,34.5,30.4,35.0,20.0,-99.9,94,71,62,30.26,30.08,8,-82,19,0.07
2013-11-21,44.8,35.3,37.0,41.0,18.5,-99.9,96,77,85,30.22,30.09,4,-145,9,0.00
2013-11-22,39.2,26.9,25.4,37.0,2.5,-99.9,93,63,63,30.46,30.22,13,-176,16,0.04
2013-11-23,25.4,15.9,13.5,19.0,-9.5,-99.9,78,53,52,30.74,30.41,16,-162,21,0.00
2013-11-24,27.0,17.0,10.2,10.0,-10.4,-99.9,82,49,40,30.71,30.30,9,-164,15,0.00
2013-11-25,38.8,22.3,22.4,27.0,-1.9,-99.9,92,65,57,30.29,30.04,9,-197,16,0.00
2013-11-26,31.8,19.9,14.3,28.0,-7.4,-99.9,90,57,60,30.22,30.02,10,-207,20,0.00
2013-11-27,25.5,16.6,11.6,15.0,-9.2,-99.9,82,56,59,30.27,30.21,9,-176,14,0.00
2013-11-28,28.9,20.5,18.5,19.0,-5.1,-99.9,82,57,65,30.51,30.17,8,-186,12,0.00
2013-11-29,32.6,21.1,11.5,24.0,-1.3,-99.9,92,63,59,30.64,30.36,3,-166,8,0.00
2013-11-30,46.7,34.4,27.3,34.0,28.1,23.0,92,79,61,30.35,30.02,5,1,12,0.00
2013-12-1,40.3,33.3,28.4,31.0,28.3,25.0,93,82,66,30.13,29.98,7,1,7,0.00
2013-12-2,41.8,32.2,22.1,36.0,28.6,21.0,95,87,69,29.97,29.74,5,1,9,0.01
2013-12-3,40.8,38.3,34.6,40.0,37.4,33.0,97,96,94,29.73,29.66,7,1,8,0.15
2013-12-4,50.9,43.5,36.1,50.0,42.8,33.0,99,97,88,29.73,29.44,14,2,22,0.07
2013-12-5,35.8,24.2,16.9,33.0,17.4,10.0,91,75,65,30.28,29.61,16,7,23,0.00
2013-12-6,17.7,13.3,9.7,10.0,5.9,3.0,81,72,62,30.58,30.26,8,4,15,0.00
2013-12-7,14.9,5.9,3.3,5.0,-25.0,-99.9,83,56,63,30.73,30.58,9,-261,10,0.00
2013-12-8,23.7,17.7,9.5,22.0,13.2,2.0,94,82,66,30.64,29.96,6,1,10,0.00
2013-12-9,21.7,11.0,-1.4,20.0,6.7,-6.0,93,83,72,30.21,29.94,13,4,23,0.00
2013-12-10,19.7,9.5,-4.4,13.0,3.6,-8.0,86,77,68,30.30,29.96,14,4,22,0.00
2013-12-11,15.0,8.7,-1.4,12.0,2.2,-8.0,89,75,61,30.56,30.28,13,4,16,0.00
2013-12-12,16.8,9.2,-2.8,12.0,2.9,-8.0,82,76,69,30.54,30.21,9,2,16,0.00
2013-12-13,26.7,20.7,14.2,21.0,16.3,10.0,86,83,75,30.23,30.16,8,2,14,0.00
2013-12-14,26.6,23.7,20.4,24.0,21.3,18.0,93,90,85,30.17,29.93,12,3,13,0.00
2013-12-15,21.8,12.9,5.7,19.0,5.4,-4.0,89,72,61,30.16,29.92,15,6,19,0.00
2013-12-16,17.0,9.0,-1.7,13.0,2.9,-7.0,90,76,57,30.19,30.05,6,1,6,0.00
2013-12-17,33.9,25.5,15.2,27.0,20.0,13.0,93,80,63,30.07,29.92,14,4,20,0.00
2013-12-18,34.6,24.7,12.1,27.0,17.1,8.0,85,73,54,30.12,29.77,9,2,15,0.00
2013-12-19,32.5,29.2,22.7,31.0,26.1,21.0,94,88,78,29.96,29.79,11,2,13,0.00
2013-12-20,27.6,24.9,23.9,26.0,23.2,22.0,95,93,92,29.88,29.79,8,3,12,0.00
2013-12-21,30.6,26.5,23.7,30.0,25.5,23.0,96,95,95,29.89,29.68,8,2,12,0.00
2013-12-22,30.6,24.8,21.3,29.0,23.5,20.0,96,94,93,30.12,29.67,7,2,13,0.00
2013-12-23,21.7,10.3,-2.0,20.0,7.1,-6.0,94,86,80,30.45,30.12,6,2,10,0.00
2013-12-24,13.8,2.3,-7.2,11.0,-1.7,-11.0,89,83,75,30.59,30.36,3,1,7,0.00
2013-12-25,23.7,20.8,14.3,22.0,18.2,12.0,92,89,86,30.34,30.08,6,2,10,0.00
2013-12-26,27.3,21.6,12.1,24.0,18.2,9.0,92,86,79,30.26,30.09,7,1,11,0.00
2013-12-27,37.1,27.3,12.7,31.0,23.7,11.0,95,87,78,30.27,30.02,10,2,14,0.01
2013-12-28,43.8,36.6,24.8,35.0,31.2,23.0,94,81,70,30.05,29.74,6,1,13,0.32
2013-12-29,40.4,22.3,0.4,32.0,16.8,-6.0,92,79,70,30.24,29.71,12,5,21,0.00
2013-12-30,3.8,-0.6,-7.7,-1.0,-7.9,-14.0,84,72,56,30.37,30.24,9,2,12,0.00
2013-12-31,8.1,3.6,-3.5,5.0,-0.4,-7.0,87,83,74,30.40,30.24,6,1,10,0.00
2014-1-1,11.2,6.9,2.6,6.0,1.2,-5.0,86,78,69,30.40,30.31,11,4,15,0.00
2014-1-2,10.9,6.6,-4.5,5.0,1.5,-8.0,86,80,71,30.46,30.27,9,3,16,0.00